Time;durP1;ratioP1;P1;durP2;ratioP2;P2;SDS_P1;SDS_P2;PMS_P1;PMS_P2;Temp;Humidity;BMP_temperature;BMP_pressure;BME280_temperature;BME280_humidity;BME280_pressure;Samples;Min_cycle;Max_cycle;Signal;HPM_P1;HPM_P2
2023/01/25 00:00:20;;;;;;;5.57;3.73;;;8.20;99.90;;;8.54;49.51;103225.81;4936001;28;106012;-59
2023/01/25 00:02:45;;;;;;;5.40;3.13;;;8.10;99.90;;;8.52;51.96;103221.38;4934541;28;97261;-54
2023/01/25 00:05:11;;;;;;;5.73;3.60;;;8.00;99.90;;;8.34;49.16;103214.13;4934066;28;98178;-49
2023/01/25 00:07:37;;;;;;;5.90;3.00;;;7.90;99.90;;;8.46;54.89;103216.03;4929847;28;97394;-49
2023/01/25 00:10:03;;;;;;;4.67;2.43;;;7.90;99.90;;;8.95;53.82;103204.38;4937202;28;100293;-53
2023/01/25 00:12:29;;;;;;;3.97;2.60;;;8.50;99.90;;;9.07;53.41;103203.63;4934714;28;98762;-55
2023/01/25 00:14:55;;;;;;;7.27;4.07;;;8.60;99.90;;;8.96;49.00;103206.13;4938556;28;98089;-52
2023/01/25 00:17:21;;;;;;;7.33;3.83;;;8.50;99.90;;;9.08;52.81;103205.38;4932038;28;102891;-54
2023/01/25 00:19:47;;;;;;;9.80;4.50;;;8.40;99.90;;;9.23;48.32;103200.28;4936370;28;97303;-49
2023/01/25 00:22:12;;;;;;;8.67;4.27;;;8.60;99.90;;;8.83;47.51;103204.25;4938810;28;98582;-52
2023/01/25 00:24:38;;;;;;;6.03;3.10;;;8.30;99.90;;;8.60;49.49;103204.84;4933765;28;122068;-53
2023/01/25 00:27:04;;;;;;;9.07;4.00;;;8.10;99.90;;;8.69;52.38;103203.19;4937504;28;98261;-53
2023/01/25 00:33:16;;;;;;;8.23;3.80;;;8.00;99.90;;;8.25;50.40;103198.19;4937498;28;97576;-52
2023/01/25 00:35:45;;;;;;;10.07;4.77;;;7.80;99.90;;;8.09;49.99;103193.53;4935818;28;97639;-52
2023/01/25 00:38:33;;;;;;;8.53;4.77;;;7.70;99.90;;;7.93;51.18;103195.94;4920641;28;97498;-53
2023/01/25 00:40:59;;;;;;;7.60;4.27;;;7.60;99.90;;;8.09;54.75;103196.19;4934452;28;99301;-53
2023/01/25 00:43:25;;;;;;;8.07;3.27;;;7.60;99.90;;;8.35;52.30;103181.69;4932370;28;99934;-54
2023/01/25 00:45:51;;;;;;;7.30;4.07;;;7.90;99.90;;;8.42;54.24;103182.66;4936898;28;98555;-50
2023/01/25 00:48:17;;;;;;;4.00;2.13;;;7.90;99.90;;;8.79;54.77;103176.09;4936499;28;99256;-51
2023/01/25 00:50:43;;;;;;;4.20;2.53;;;8.20;99.90;;;9.22;53.47;103178.31;4934491;28;97316;-49
2023/01/25 00:53:09;;;;;;;5.70;2.63;;;8.90;99.90;;;9.91;52.03;103171.00;4936193;28;97298;-52
2023/01/25 00:55:35;;;;;;;8.20;4.53;;;9.80;99.90;;;10.17;49.12;103173.81;4930818;28;123420;-52
2023/01/25 00:58:00;;;;;;;8.50;4.33;;;10.20;99.90;;;9.87;46.02;103178.91;4934709;28;109616;-54
2023/01/25 01:00:26;;;;;;;5.83;3.43;;;9.70;99.90;;;9.50;46.27;103168.94;4933006;28;99863;-50
2023/01/25 01:02:52;;;;;;;5.53;3.40;;;9.20;99.90;;;9.24;47.23;103162.53;4934177;28;97740;-55
2023/01/25 01:05:18;;;;;;;4.90;3.33;;;8.80;99.90;;;8.92;48.47;103156.94;4934524;28;100875;-52
2023/01/25 01:07:48;;;;;;;9.80;4.90;;;8.50;99.90;;;8.58;49.43;103167.09;4906589;28;97672;-49
2023/01/25 01:10:14;;;;;;;6.70;3.87;;;8.10;99.90;;;8.32;49.80;103161.47;4935663;28;99557;-52
2023/01/25 01:12:40;;;;;;;6.13;3.50;;;7.90;99.90;;;8.06;50.73;103168.97;4929640;28;99147;-49
2023/01/25 01:15:07;;;;;;;8.60;3.77;;;7.70;99.90;;;7.91;51.04;103160.88;4954797;28;98435;-49
2023/01/25 01:17:32;;;;;;;8.90;3.30;;;7.60;99.90;;;8.05;55.74;103166.34;4948081;28;97199;-52
2023/01/25 01:19:58;;;;;;;5.53;3.77;;;7.50;99.90;;;8.39;55.54;103162.47;4955708;28;97453;-54
2023/01/25 01:22:24;;;;;;;6.43;3.60;;;7.80;99.90;;;8.75;51.99;103158.53;4950435;28;102926;-48
2023/01/25 01:24:50;;;;;;;8.13;4.20;;;8.20;99.90;;;8.58;50.30;103166.22;4955239;28;98531;-47
2023/01/25 01:27:15;;;;;;;8.20;4.03;;;8.10;99.90;;;8.65;51.75;103168.03;4952779;28;98387;-52
2023/01/25 01:29:41;;;;;;;9.73;4.90;;;8.10;99.90;;;8.58;51.75;103167.09;4951237;28;96922;-53
2023/01/25 01:32:07;;;;;;;8.73;4.40;;;8.00;99.90;;;8.46;50.33;103164.31;4955071;28;98023;-52
2023/01/25 01:34:33;;;;;;;7.80;4.20;;;7.90;99.90;;;8.32;50.82;103163.22;4949969;28;98612;-52
2023/01/25 01:36:59;;;;;;;6.23;3.47;;;7.80;99.90;;;8.63;53.04;103175.91;4949652;28;98443;-54
2023/01/25 01:39:25;;;;;;;4.97;2.60;;;8.00;99.90;;;8.89;54.48;103168.34;4949015;28;114338;-51
2023/01/25 01:41:51;;;;;;;10.00;4.27;;;8.30;99.90;;;9.16;51.12;103167.75;4958858;28;97105;-54
2023/01/25 01:44:26;;;;;;;8.20;4.13;;;8.70;99.90;;;9.24;52.01;103160.78;4953014;28;99351;-50
2023/01/25 01:46:56;;;;;;;6.83;3.97;;;8.60;99.90;;;9.58;50.27;103158.47;4933895;28;101127;-47
2023/01/25 01:49:27;;;;;;;7.43;4.30;;;8.90;99.90;;;9.71;49.55;103165.59;4926015;28;97313;-52
2023/01/25 01:52:24;;;;;;;14.20;5.50;;;9.10;99.90;;;9.38;48.95;103167.94;4952008;28;97287;-54
2023/01/25 01:55:07;;;;;;;7.37;3.53;;;8.80;99.90;;;9.48;50.96;103169.78;4932133;28;103411;-54
2023/01/25 01:57:54;;;;;;;10.83;4.37;;;8.80;99.90;;;9.44;48.49;103168.00;4959980;28;96913;-52
2023/01/25 02:00:34;;;;;;;10.40;4.77;;;8.70;99.90;;;9.08;48.09;103169.41;4951119;28;97068;-59
2023/01/25 02:03:00;;;;;;;9.53;3.70;;;8.60;99.90;;;8.94;51.09;103164.00;4931651;28;97508;-49
2023/01/25 02:05:49;;;;;;;8.67;4.23;;;8.30;99.90;;;8.73;51.32;103155.88;4944919;28;98096;-54
2023/01/25 02:08:16;;;;;;;6.37;3.93;;;8.20;99.90;;;8.88;53.27;103152.53;4935103;28;97692;-53
2023/01/25 02:10:43;;;;;;;9.57;4.43;;;8.20;99.90;;;8.74;50.83;103156.75;4936263;28;100094;-52
2023/01/25 02:13:10;;;;;;;6.20;3.57;;;8.20;99.90;;;8.94;54.09;103149.94;4947897;28;97503;-52
2023/01/25 02:15:49;;;;;;;11.10;5.47;;;8.30;99.90;;;8.96;52.10;103153.47;4947195;28;115141;-48
2023/01/25 02:18:17;;;;;;;8.43;4.80;;;8.30;99.90;;;9.11;52.02;103163.28;4951017;28;98036;-52
2023/01/25 02:20:46;;;;;;;6.73;4.03;;;8.40;99.90;;;9.12;51.61;103159.81;4934235;28;97181;-50
2023/01/25 02:23:23;;;;;;;5.60;3.00;;;8.40;99.90;;;9.20;53.12;103159.00;4951890;28;97154;-51
2023/01/25 02:25:49;;;;;;;14.80;4.73;;;8.50;99.90;;;9.07;48.26;103157.09;4950349;28;103562;-53
2023/01/25 02:28:22;;;;;;;8.20;3.87;;;8.50;99.90;;;8.79;50.63;103148.03;4938306;28;98702;-53
2023/01/25 02:30:48;;;;;;;9.33;4.80;;;8.20;99.90;;;8.49;50.03;103148.56;4951209;28;97112;-50
2023/01/25 02:33:14;;;;;;;3.53;2.10;;;7.90;99.90;;;8.59;54.64;103142.56;4935101;28;97219;-50
2023/01/25 02:35:43;;;;;;;7.07;3.23;;;7.90;99.90;;;8.54;52.36;103146.88;4948733;28;116896;-50
2023/01/25 02:38:13;;;;;;;6.67;3.77;;;7.90;99.90;;;8.46;53.80;103140.63;4936142;28;97211;-50
2023/01/25 02:41:31;;;;;;;6.17;3.73;;;7.90;99.90;;;8.88;53.78;103142.00;4934048;28;97607;-52
2023/01/25 02:43:57;;;;;;;10.97;5.27;;;8.20;99.90;;;8.86;53.26;103133.22;4944472;28;97204;-52
2023/01/25 02:46:28;;;;;;;8.63;4.43;;;8.20;99.90;;;8.69;51.59;103132.16;4919236;28;99568;-52
2023/01/25 02:48:55;;;;;;;8.03;3.83;;;8.00;99.90;;;8.80;52.80;103130.50;4948547;28;96937;-49
2023/01/25 02:51:23;;;;;;;6.50;3.90;;;8.10;99.90;;;8.71;51.23;103131.28;4947238;28;96926;-58
2023/01/25 02:53:50;;;;;;;9.90;5.00;;;8.00;99.90;;;8.76;53.46;103123.44;4954061;28;97517;-50
2023/01/25 02:56:17;;;;;;;7.40;4.50;;;8.00;99.90;;;8.52;51.32;103130.16;4950469;28;97360;-48
2023/01/25 02:58:43;;;;;;;8.90;4.07;;;7.90;99.90;;;8.29;51.24;103136.88;4949127;28;97505;-53
2023/01/25 03:01:11;;;;;;;11.40;4.83;;;7.80;99.90;;;8.15;51.75;103136.69;4954085;28;97123;-53
2023/01/25 03:03:37;;;;;;;9.80;4.73;;;7.60;99.90;;;7.96;51.43;103138.19;4949622;28;96863;-53
2023/01/25 03:06:03;;;;;;;8.30;3.97;;;7.50;99.90;;;7.90;53.08;103138.06;4953804;28;97442;-51
2023/01/25 03:08:29;;;;;;;8.33;3.73;;;7.40;99.90;;;8.03;56.16;103133.88;4945573;28;98783;-50
2023/01/25 03:11:00;;;;;;;8.23;4.43;;;7.50;99.90;;;7.86;52.34;103133.66;4953269;28;97049;-53
2023/01/25 03:13:26;;;;;;;8.93;4.37;;;7.40;99.90;;;7.84;54.01;103127.50;4944065;28;97854;-51
2023/01/25 03:15:58;;;;;;;9.40;4.27;;;7.40;99.90;;;7.79;52.53;103129.13;4949931;28;99948;-47
2023/01/25 03:18:24;;;;;;;8.33;4.73;;;7.30;99.90;;;7.79;53.63;103123.88;4942689;28;97349;-49
2023/01/25 03:20:50;;;;;;;11.93;5.10;;;7.30;99.90;;;7.88;55.21;103124.03;4950168;28;98129;-50
2023/01/25 03:23:15;;;;;;;5.60;3.63;;;7.30;99.90;;;7.78;52.91;103132.63;4945404;28;97239;-51
2023/01/25 03:25:41;;;;;;;5.93;3.63;;;7.30;99.90;;;7.60;53.57;103132.34;4945594;28;121386;-50
2023/01/25 03:28:07;;;;;;;7.57;4.17;;;7.20;99.90;;;7.62;54.27;103125.38;4951692;28;108995;-50
2023/01/25 03:30:33;;;;;;;10.27;4.50;;;7.10;99.90;;;7.64;55.77;103134.16;4950425;28;97420;-52
2023/01/25 03:32:59;;;;;;;7.53;4.83;;;7.10;99.90;;;7.89;54.72;103136.31;4952825;28;97154;-50
2023/01/25 03:35:25;;;;;;;3.10;2.40;;;7.30;99.90;;;8.20;56.65;103136.75;4948629;28;108302;-49
2023/01/25 03:37:51;;;;;;;9.73;5.03;;;7.60;99.90;;;8.41;53.47;103130.94;4951940;28;101459;-50
2023/01/25 03:40:17;;;;;;;9.83;5.00;;;7.80;99.90;;;8.44;51.52;103129.22;4952702;28;97010;-49
2023/01/25 03:42:42;;;;;;;10.37;4.50;;;7.90;99.90;;;8.22;50.79;103130.63;4948467;28;98568;-52
2023/01/25 03:45:09;;;;;;;7.20;4.10;;;7.70;99.90;;;8.09;52.01;103122.56;4953399;28;116676;-52
2023/01/25 03:47:35;;;;;;;8.53;4.00;;;7.60;99.90;;;7.84;52.35;103119.59;4951719;28;97588;-48
2023/01/25 03:50:00;;;;;;;7.10;4.23;;;7.40;99.90;;;7.70;53.62;103129.91;4955632;28;97295;-52
2023/01/25 03:52:27;;;;;;;6.87;4.03;;;7.20;99.90;;;7.88;56.66;103124.03;4949545;28;100121;-49
2023/01/25 03:54:52;;;;;;;8.10;4.07;;;7.30;99.90;;;8.28;55.10;103114.97;4956645;28;97199;-52
2023/01/25 03:57:18;;;;;;;7.43;4.43;;;7.70;99.90;;;8.42;54.94;103122.16;4956634;28;100632;-55
2023/01/25 03:59:44;;;;;;;11.27;5.07;;;7.80;99.90;;;8.52;51.63;103111.75;4957534;28;96866;-53
2023/01/25 04:02:11;;;;;;;8.33;4.77;;;7.90;99.90;;;8.47;52.92;103116.09;4958472;28;97444;-54
2023/01/25 04:04:37;;;;;;;9.97;4.27;;;7.80;99.90;;;8.33;52.15;103104.47;4950517;28;97056;-50
2023/01/25 04:07:03;;;;;;;7.70;4.07;;;7.70;99.90;;;8.44;54.71;103100.28;4958636;28;97298;-54
2023/01/25 04:09:29;;;;;;;4.70;2.30;;;7.70;99.90;;;8.74;55.14;103093.59;4952849;28;97212;-54
2023/01/25 04:11:54;;;;;;;3.47;2.37;;;8.00;99.90;;;9.11;54.10;103090.47;4941639;28;96801;-54
2023/01/25 04:14:20;;;;;;;6.77;4.07;;;8.50;99.90;;;9.19;51.01;103096.66;4957698;28;103507;-59
2023/01/25 04:16:46;;;;;;;7.60;4.27;;;8.70;99.90;;;9.15;52.24;103086.97;4955440;28;99706;-54
2023/01/25 04:19:12;;;;;;;8.00;4.20;;;8.60;99.90;;;9.17;51.26;103074.69;4958226;28;99956;-55
2023/01/25 04:21:37;;;;;;;8.17;4.27;;;8.50;99.90;;;9.09;49.71;103072.84;4955680;28;96931;-54
2023/01/25 04:24:04;;;;;;;8.87;4.53;;;8.40;99.90;;;8.77;49.72;103069.94;4929920;28;98989;-50
2023/01/25 04:26:29;;;;;;;9.60;4.23;;;8.20;99.90;;;8.42;50.48;103065.19;4952045;28;97434;-53
2023/01/25 04:28:55;;;;;;;6.27;4.10;;;7.90;99.90;;;8.10;51.77;103072.66;4955300;28;99765;-52
2023/01/25 04:31:21;;;;;;;5.73;3.47;;;7.60;99.90;;;7.99;55.00;103067.25;4955216;28;98327;-57
2023/01/25 04:33:47;;;;;;;8.47;4.17;;;7.50;99.90;;;7.90;54.64;103067.13;4956596;28;97403;-48
2023/01/25 04:36:12;;;;;;;10.10;3.60;;;7.50;99.90;;;7.72;53.02;103056.34;4955992;28;97127;-50
2023/01/25 04:38:38;;;;;;;6.23;3.17;;;7.40;99.90;;;7.78;54.19;103064.31;4953675;28;107544;-54
2023/01/25 04:41:04;;;;;;;6.63;4.13;;;7.30;99.90;;;7.68;54.74;103060.69;4939484;28;97265;-52
2023/01/25 04:43:30;;;;;;;9.87;3.20;;;7.30;99.90;;;7.62;53.11;103052.69;4951084;28;97764;-53
2023/01/25 04:45:56;;;;;;;6.77;4.37;;;7.20;99.90;;;7.81;53.84;103058.22;4956998;28;98228;-52
2023/01/25 04:48:22;;;;;;;6.03;3.43;;;7.40;99.90;;;7.66;52.89;103056.25;4951427;28;100488;-49
2023/01/25 04:50:47;;;;;;;4.40;2.83;;;7.30;99.90;;;7.53;54.62;103055.22;4955986;28;97675;-53
2023/01/25 04:53:13;;;;;;;6.57;3.90;;;7.10;99.90;;;7.51;54.31;103058.66;4955136;28;97026;-51
2023/01/25 04:55:39;;;;;;;9.40;3.80;;;7.10;99.90;;;7.40;53.44;103062.03;4951457;28;98226;-53
2023/01/25 04:58:05;;;;;;;7.83;3.87;;;7.00;99.90;;;7.22;53.93;103061.72;4954540;28;97188;-53
2023/01/25 05:00:31;;;;;;;6.07;2.87;;;6.90;99.90;;;7.19;55.52;103068.66;4951877;28;97033;-49
2023/01/25 05:02:57;;;;;;;8.43;3.60;;;6.80;99.90;;;7.10;54.94;103066.78;4954787;28;98612;-51
2023/01/25 05:05:23;;;;;;;7.33;3.43;;;6.80;99.90;;;7.13;55.10;103061.56;4935210;28;97628;-50
2023/01/25 05:07:48;;;;;;;7.83;4.00;;;6.80;99.90;;;7.15;54.90;103055.47;4952096;28;97318;-52
2023/01/25 05:10:14;;;;;;;8.57;3.60;;;6.80;99.90;;;7.17;57.47;103058.13;4953466;28;98721;-52
2023/01/25 05:12:40;;;;;;;4.90;2.90;;;6.80;99.90;;;7.20;56.87;103049.41;4950656;28;97162;-53
2023/01/25 05:15:07;;;;;;;6.77;3.80;;;6.80;99.90;;;7.20;55.37;103046.78;4939290;28;111676;-49
2023/01/25 05:17:32;;;;;;;6.37;3.53;;;6.80;99.90;;;7.29;55.74;103047.84;4950033;28;97147;-54
2023/01/25 05:19:58;;;;;;;7.43;3.90;;;6.90;99.90;;;7.30;55.73;103046.97;4953960;28;105850;-52
2023/01/25 05:22:24;;;;;;;4.80;2.87;;;6.90;99.90;;;7.42;56.92;103044.53;4950914;28;102067;-50
2023/01/25 05:24:50;;;;;;;7.00;4.03;;;6.90;99.90;;;7.51;55.63;103037.63;4954234;28;106543;-48
2023/01/25 05:27:19;;;;;;;5.93;3.23;;;7.00;99.90;;;7.62;56.05;103036.06;4952500;28;98255;-49
2023/01/25 05:29:45;;;;;;;6.77;3.40;;;7.00;99.90;;;7.75;53.67;103032.75;4950134;28;97038;-51
2023/01/25 05:32:21;;;;;;;7.50;4.17;;;7.20;99.90;;;7.60;53.08;103032.53;4950712;28;98719;-50
2023/01/25 05:34:47;;;;;;;8.93;3.97;;;7.10;99.90;;;7.74;55.88;103030.97;4949914;28;100995;-52
2023/01/25 05:37:16;;;;;;;7.73;3.50;;;7.10;99.90;;;7.89;54.30;103027.66;4954142;28;97015;-52
2023/01/25 05:39:42;;;;;;;7.33;3.70;;;7.30;99.90;;;7.89;56.12;103031.19;4951368;28;97314;-52
2023/01/25 05:42:14;;;;;;;7.80;3.93;;;7.30;99.90;;;7.85;54.95;103034.66;4943227;28;98786;-50
2023/01/25 05:44:40;;;;;;;7.10;3.80;;;7.20;99.90;;;7.92;54.53;103036.47;4946862;28;97173;-51
2023/01/25 05:47:11;;;;;;;7.10;3.57;;;7.30;99.90;;;8.01;54.91;103026.09;4955784;28;96768;-52
2023/01/25 05:49:37;;;;;;;3.90;2.57;;;7.30;99.90;;;8.14;56.17;103036.75;4951566;28;97200;-50
2023/01/25 05:52:03;;;;;;;8.40;4.67;;;7.40;99.90;;;7.77;52.36;103025.75;4955688;28;118109;-54
2023/01/25 05:54:29;;;;;;;4.83;3.37;;;7.20;99.90;;;7.66;52.74;103025.59;4950756;28;98262;-51
2023/01/25 05:56:54;;;;;;;9.57;4.47;;;7.10;99.90;;;7.71;55.29;103025.69;4953139;28;97470;-49
2023/01/25 05:59:20;;;;;;;8.80;4.27;;;7.10;99.90;;;7.59;54.22;103023.78;4957126;28;96814;-49
2023/01/25 06:01:46;;;;;;;8.63;4.40;;;7.10;99.90;;;7.60;54.11;103022.03;4955865;28;101600;-52
2023/01/25 06:04:16;;;;;;;8.77;3.90;;;7.10;99.90;;;7.83;57.65;103028.50;4952123;28;98208;-53
2023/01/25 06:06:42;;;;;;;8.97;4.30;;;7.20;99.90;;;7.81;52.71;103032.84;4927662;28;97416;-48
2023/01/25 06:09:11;;;;;;;5.57;2.97;;;7.20;99.90;;;8.11;57.00;103032.34;4952641;28;98430;-47
2023/01/25 06:11:36;;;;;;;8.03;3.57;;;7.40;99.90;;;8.32;55.94;103026.44;4949489;28;99021;-50
2023/01/25 06:14:02;;;;;;;7.67;5.13;;;7.60;99.90;;;8.24;51.47;103022.84;4954165;28;97482;-52
2023/01/25 06:16:28;;;;;;;6.47;4.23;;;7.60;99.90;;;8.19;54.15;103016.66;4951999;28;97231;-51
2023/01/25 06:18:54;;;;;;;6.37;4.10;;;7.50;99.90;;;8.11;53.44;103015.69;4937019;28;97355;-53
2023/01/25 06:21:20;;;;;;;7.73;3.77;;;7.50;99.90;;;7.85;51.92;103008.38;4956025;28;98756;-51
2023/01/25 06:23:45;;;;;;;8.00;3.87;;;7.30;99.90;;;7.85;55.07;103005.72;4949999;28;102609;-49
2023/01/25 06:26:14;;;;;;;5.60;3.43;;;7.30;99.90;;;7.62;53.41;103005.41;4954414;28;102082;-53
2023/01/25 06:28:40;;;;;;;9.00;3.87;;;7.10;99.90;;;7.51;53.55;103011.38;4950336;28;96885;-51
2023/01/25 06:31:17;;;;;;;6.40;3.27;;;7.10;99.90;;;7.53;54.69;103014.94;4955353;28;97122;-51
2023/01/25 06:33:47;;;;;;;7.87;4.13;;;7.10;99.90;;;7.50;54.50;103014.88;4948662;28;99344;-50
2023/01/25 06:36:16;;;;;;;7.93;4.13;;;7.00;99.90;;;7.47;56.30;103008.72;4953579;28;97141;-52
2023/01/25 06:38:41;;;;;;;7.50;4.13;;;7.00;99.90;;;7.59;54.06;103015.00;4920638;28;98286;-50
2023/01/25 06:41:11;;;;;;;6.73;3.20;;;7.10;99.90;;;7.49;53.38;103007.84;4955528;28;115356;-52
2023/01/25 06:43:37;;;;;;;6.90;3.87;;;7.00;99.90;;;7.55;55.60;103013.22;4952666;28;99154;-50
2023/01/25 06:46:06;;;;;;;8.80;4.67;;;7.00;99.90;;;7.53;55.39;103012.31;4959535;28;97576;-49
2023/01/25 06:48:33;;;;;;;9.13;4.83;;;7.00;99.90;;;7.56;55.10;103009.72;4954230;28;96721;-52
2023/01/25 06:51:06;;;;;;;9.73;4.87;;;7.10;99.90;;;7.45;53.34;103013.06;4957030;28;97407;-49
2023/01/25 06:53:36;;;;;;;8.03;3.93;;;7.00;99.90;;;7.29;53.81;103010.19;4949773;28;99553;-52
2023/01/25 06:56:08;;;;;;;8.07;4.30;;;6.90;99.90;;;7.21;54.98;103020.56;4956817;28;97013;-52
2023/01/25 06:58:34;;;;;;;8.70;4.97;;;6.80;99.90;;;7.10;54.69;103019.53;4953560;28;97397;-49
2023/01/25 07:01:11;;;;;;;8.03;4.07;;;6.80;99.90;;;6.98;55.32;103021.94;4954904;28;97123;-51
2023/01/25 07:03:38;;;;;;;7.27;3.77;;;6.60;99.90;;;7.15;55.88;103018.72;4932584;28;98832;-52
2023/01/25 07:06:07;;;;;;;9.80;4.57;;;6.70;99.90;;;7.09;54.79;103018.66;4954637;28;97013;-49
2023/01/25 07:08:34;;;;;;;6.27;3.37;;;6.70;99.90;;;6.97;55.00;103022.81;4947012;28;97054;-49
2023/01/25 07:11:03;;;;;;;7.63;4.67;;;6.60;99.90;;;6.89;55.31;103017.41;4954056;28;99084;-49
2023/01/25 07:13:31;;;;;;;9.87;4.67;;;6.60;99.90;;;6.86;55.69;103020.88;4950205;28;98252;-50
2023/01/25 07:16:00;;;;;;;10.60;3.77;;;6.60;99.90;;;6.85;55.12;103026.09;4936289;28;97838;-54
2023/01/25 07:18:29;;;;;;;6.73;3.63;;;6.60;99.90;;;6.81;55.87;103027.78;4944786;28;97542;-50
2023/01/25 07:21:01;;;;;;;9.93;5.40;;;6.50;99.90;;;6.72;55.95;103027.63;4952507;28;97766;-54
2023/01/25 07:23:27;;;;;;;10.77;4.80;;;6.40;99.90;;;6.84;58.69;103025.22;4952200;28;98196;-54
2023/01/25 07:25:52;;;;;;;10.53;4.73;;;6.40;99.90;;;7.05;58.39;103026.44;4954551;28;97148;-49
2023/01/25 07:28:18;;;;;;;7.63;3.97;;;6.60;99.90;;;7.12;57.11;103023.06;4952543;28;97238;-51
2023/01/25 07:30:44;;;;;;;10.40;4.90;;;6.70;99.90;;;7.19;56.30;103024.91;4947932;28;96804;-49
2023/01/25 07:33:10;;;;;;;6.93;4.33;;;6.70;99.90;;;7.57;57.94;103011.47;4922047;28;97362;-50
2023/01/25 07:35:37;;;;;;;10.63;4.43;;;7.00;99.90;;;7.88;57.03;103005.75;4950023;28;99113;-56
2023/01/25 07:38:03;;;;;;;8.40;4.53;;;7.20;99.90;;;8.05;55.37;103012.09;4947254;28;101940;-50
2023/01/25 07:40:29;;;;;;;8.03;4.30;;;7.40;99.90;;;8.33;55.92;103015.06;4949598;28;97581;-50
2023/01/25 07:42:55;;;;;;;8.30;4.47;;;7.60;99.90;;;8.43;52.37;103019.59;4951928;28;97610;-54
2023/01/25 07:45:27;;;;;;;7.80;4.10;;;7.70;99.90;;;8.19;52.04;103011.38;4934914;28;97374;-55
2023/01/25 07:47:53;;;;;;;10.70;4.13;;;7.60;99.90;;;8.06;51.69;103002.47;4933869;28;97423;-54
2023/01/25 07:50:19;;;;;;;6.17;3.57;;;7.50;99.90;;;7.80;52.34;103011.78;4939218;28;99452;-54
2023/01/25 07:52:45;;;;;;;9.40;4.43;;;7.30;99.90;;;7.69;53.72;103009.03;4941197;28;105698;-51
2023/01/25 07:55:11;;;;;;;12.47;4.70;;;7.20;99.90;;;7.56;53.84;103015.84;4951758;28;97536;-49
2023/01/25 07:57:41;;;;;;;9.73;5.13;;;7.10;99.90;;;7.54;53.47;103011.44;4947764;28;97061;-55
2023/01/25 08:00:08;;;;;;;10.37;5.23;;;7.10;99.90;;;7.41;53.64;103011.25;4949987;28;99015;-53
2023/01/25 08:02:34;;;;;;;8.77;4.57;;;7.00;99.90;;;7.35;55.60;103005.00;4947666;28;98371;-51
2023/01/25 08:05:05;;;;;;;9.97;4.57;;;7.00;99.90;;;7.46;56.96;103004.31;4939916;28;96974;-53
2023/01/25 08:07:31;;;;;;;10.87;5.63;;;7.00;99.90;;;7.75;56.71;102990.69;4927453;28;98007;-50
2023/01/25 08:09:57;;;;;;;7.63;3.80;;;7.20;99.90;;;7.87;57.18;102996.13;4932757;28;98589;-50
2023/01/25 08:12:27;;;;;;;10.63;5.77;;;7.30;99.90;;;7.98;53.14;102994.50;4931437;28;103205;-53
2023/01/25 08:14:53;;;;;;;7.83;3.57;;;7.50;99.90;;;7.79;53.16;102997.75;4906032;28;97323;-49
2023/01/25 08:17:19;;;;;;;12.63;5.23;;;7.30;99.90;;;7.64;53.28;103002.81;4912144;28;98355;-48
2023/01/25 08:19:51;;;;;;;7.33;3.80;;;7.20;99.90;;;7.67;54.69;103002.88;4946210;28;109595;-50
2023/01/25 08:22:16;;;;;;;15.20;6.17;;;7.10;99.90;;;7.72;53.15;103004.69;4950758;28;98172;-49
2023/01/25 08:24:42;;;;;;;5.57;3.20;;;7.20;99.90;;;7.90;57.40;103011.03;4946786;28;98071;-49
2023/01/25 08:27:08;;;;;;;11.27;6.20;;;7.30;99.90;;;8.07;54.61;103007.75;4954895;28;98869;-51
2023/01/25 08:29:34;;;;;;;16.10;6.93;;;7.50;99.90;;;8.15;54.67;103006.97;4947394;28;107276;-51
2023/01/25 08:32:03;;;;;;;10.73;6.20;;;7.60;99.90;;;7.92;52.41;102998.78;4931347;28;97564;-50
2023/01/25 08:34:30;;;;;;;13.30;6.70;;;7.50;99.90;;;7.74;53.01;103004.72;4948926;28;97058;-50
2023/01/25 08:36:56;;;;;;;13.50;5.90;;;7.30;99.90;;;7.57;53.53;103000.97;4953952;28;101364;-53
2023/01/25 08:39:22;;;;;;;13.83;6.67;;;7.10;99.90;;;7.42;54.13;102999.00;4955850;28;98086;-54
2023/01/25 08:41:48;;;;;;;15.07;7.07;;;7.00;99.90;;;7.29;55.22;102987.44;4950268;28;97095;-51
2023/01/25 08:44:14;;;;;;;17.87;7.47;;;6.90;99.90;;;7.53;58.01;102999.19;4954919;28;97389;-55
2023/01/25 08:46:41;;;;;;;17.70;7.40;;;7.00;99.90;;;7.51;54.41;102995.63;4953785;28;97238;-50
2023/01/25 08:49:09;;;;;;;12.97;5.97;;;7.10;99.90;;;7.37;53.56;102995.41;4952989;28;97434;-51
2023/01/25 08:51:35;;;;;;;14.70;7.37;;;7.00;99.90;;;7.35;53.99;102989.25;4952128;28;98786;-51
2023/01/25 08:54:06;;;;;;;11.60;5.77;;;7.00;99.90;;;7.45;57.98;102994.69;4954705;28;98287;-50
2023/01/25 08:56:32;;;;;;;13.07;6.67;;;6.90;99.90;;;7.53;54.81;102986.03;4948596;28;98201;-50
2023/01/25 08:58:58;;;;;;;14.30;5.93;;;7.00;99.90;;;7.40;53.63;102987.59;4926981;28;98638;-53
2023/01/25 09:01:27;;;;;;;10.43;4.77;;;7.00;99.90;;;7.40;54.55;102987.59;4939341;28;104963;-51
2023/01/25 09:03:53;;;;;;;11.13;5.57;;;6.90;99.90;;;7.57;56.73;102979.97;4927144;28;97005;-51
2023/01/25 09:06:19;;;;;;;9.20;5.07;;;7.00;99.90;;;7.45;55.09;102975.41;4938348;28;96920;-52
2023/01/25 09:08:46;;;;;;;8.80;4.40;;;7.00;99.90;;;7.88;58.01;102979.47;4928226;28;101066;-55
2023/01/25 09:11:21;;;;;;;9.67;4.30;;;7.30;99.90;;;8.07;56.90;102984.09;4942629;28;97307;-55
2023/01/25 09:13:52;;;;;;;8.67;4.27;;;7.50;99.90;;;8.49;56.26;102988.09;4954698;28;96876;-55
2023/01/25 09:16:27;;;;;;;6.70;3.43;;;7.90;99.90;;;8.84;55.33;102982.28;4958856;28;96811;-55
2023/01/25 09:18:57;;;;;;;9.03;5.33;;;8.20;99.90;;;9.11;53.81;102979.84;4918827;28;101593;-50
2023/01/25 09:21:23;;;;;;;11.97;5.43;;;8.50;99.90;;;9.34;53.41;102981.75;4957472;28;97166;-55
2023/01/25 09:23:56;;;;;;;9.43;4.07;;;8.70;99.90;;;9.58;53.17;102981.91;4956463;28;97052;-52
2023/01/25 09:26:21;;;;;;;11.77;5.90;;;9.00;99.90;;;9.69;52.25;102971.38;4941366;28;97966;-54
2023/01/25 09:28:50;;;;;;;12.50;5.80;;;9.10;99.90;;;9.78;51.06;102974.97;4954188;28;99692;-52
2023/01/25 09:31:18;;;;;;;12.10;5.30;;;9.00;99.90;;;10.00;52.11;102975.06;4949611;28;102856;-55
2023/01/25 09:33:45;;;;;;;11.50;5.73;;;9.20;99.90;;;9.73;47.05;102965.28;4935808;28;97365;-53
2023/01/25 09:36:11;;;;;;;11.47;5.30;;;9.10;99.90;;;9.47;51.48;102963.41;4954720;28;96905;-50
2023/01/25 09:38:37;;;;;;;9.97;4.77;;;8.70;99.90;;;9.63;52.69;102955.56;4947206;28;100076;-52
2023/01/25 09:41:55;;;;;;;9.30;4.57;;;8.70;99.90;;;9.68;51.60;102953.81;4953120;28;98288;-54
2023/01/25 09:44:45;;;;;;;12.43;5.43;;;8.70;99.90;;;9.18;51.37;102957.94;4951141;28;97147;-53
2023/01/25 09:47:45;;;;;;;11.67;5.83;;;8.40;99.90;;;8.89;51.26;102946.34;4956422;28;96803;-53
2023/01/25 09:50:51;;;;;;;9.53;4.87;;;8.10;99.90;;;8.77;52.06;102943.59;4896930;28;109386;-50
2023/01/25 09:53:32;;;;;;;7.33;3.80;;;8.00;99.90;;;8.93;54.79;102942.84;4931086;28;103246;-54
2023/01/25 09:56:11;;;;;;;6.07;3.20;;;8.10;99.90;;;9.31;53.80;102934.31;4927754;28;97176;-55
2023/01/25 09:58:51;;;;;;;10.83;5.27;;;8.60;99.90;;;9.66;51.78;102938.00;4897454;28;97495;-53
2023/01/25 10:01:23;;;;;;;7.40;4.17;;;9.20;99.90;;;10.01;51.88;102945.19;4928792;28;97731;-54
2023/01/25 10:03:56;;;;;;;16.63;6.97;;;9.60;99.90;;;10.02;50.99;102939.03;4945628;28;97286;-53
2023/01/25 10:06:33;;;;;;;13.70;6.37;;;9.50;99.90;;;10.10;49.97;102939.91;4955332;28;97064;-54
2023/01/25 10:09:24;;;;;;;11.33;5.60;;;9.50;99.90;;;10.10;48.35;102945.19;4931557;28;98206;-51
2023/01/25 10:11:57;;;;;;;14.80;7.27;;;9.30;99.90;;;9.97;48.63;102938.09;4943708;28;103408;-51
2023/01/25 10:14:23;;;;;;;14.10;6.23;;;9.10;99.90;;;9.64;50.70;102928.34;4951021;28;97434;-54
2023/01/25 10:17:17;;;;;;;10.50;5.10;;;8.80;99.90;;;9.43;49.32;102924.75;4947343;28;97466;-51
2023/01/25 10:19:58;;;;;;;12.87;5.77;;;8.60;99.90;;;9.01;49.27;102924.50;4949282;28;97245;-52
2023/01/25 10:22:40;;;;;;;11.40;6.10;;;8.30;99.90;;;8.59;50.39;102923.28;4935728;28;100269;-51
2023/01/25 10:25:23;;;;;;;11.80;5.73;;;8.00;99.90;;;8.46;50.49;102924.91;4951132;28;100926;-51
2023/01/25 10:28:42;;;;;;;10.73;5.17;;;7.90;99.90;;;8.07;51.57;102914.84;4947805;28;96998;-53
2023/01/25 10:31:24;;;;;;;10.33;5.60;;;7.60;99.90;;;7.91;52.28;102915.56;4910226;28;98007;-49
2023/01/25 10:33:51;;;;;;;15.07;7.00;;;7.40;99.90;;;7.67;53.29;102908.28;4933294;28;97774;-54